NGTA/TRW METAR and TAF weather

Enter ICAO airport designator
Station Type Date Time Source
NGTA METAR 2021/05/17 21:00 UTC NOAA

NGTA 172100Z 06009KT 9999 FEW018TCU SCT300 30/26 Q1008


Station Type Date Time Source
NGTA Decoded METAR 2021/05/17 21:00 UTC NOAA

Tarawa, Kiribati (NGTA) 01-21N 172-55E 4M
May 17, 2021 - 05:00 PM EDT / 2021.05.17 2100 UTC
Wind: from the ENE (060 degrees) at 10 MPH (9 KT):0
Visibility: greater than 7 mile(s):0
Sky conditions: partly cloudy
Weather: Towering cumulus clouds observed
Temperature: 86 F (30 C)
Heat index: 99.3 F (37.4 C):1
Dew Point: 78 F (26 C)
Relative Humidity: 79%
Pressure (altimeter): 29.77 in. Hg (1008 hPa)
ob: NGTA 172100Z 06009KT 9999 FEW018TCU SCT300 30/26 Q1008
cycle: 21

Station Type Date Time Source
NGTA TAF 2021/05/17 18:12 UTC NOAA

TAF NGTA 171708Z 1718/1818 09012KT 9999 SCT018 SCT040 PROB30
TEMPO 1803/1812 5000 SHRA FEW018CB

Example: see airport list